Klamath Falls International, OR

6:11 AM PDT on October 23, 2014 (GMT -0700)
Rogue Valley International-Medford | Change Station
CLOSE
Current Station
Airport
Location: Medford,
Elevation: 1329 ft
Nearby Weather Stations

Elev 1329 ft 42.38 °N, 122.87 °W | Updated 18 minutes ago

Rain
Rain
56 °F
Feels Like 56 °F
N
4
Wind Variable Wind from NNE

Today
High -- | Low -- °F
--% Chance of Precip.
Yesterday
High -- | Low -- °F
Precip. -- in
7:29 AM 6:12 PM
Waning Crescent, 0% visible
Pressure 29.86 in
Visibility 10.0 miles
Clouds Overcast 5500 ft
Dew Point 54 °F
Humidity 93%
Rainfall 0.03 in
Snow Depth 0 in
UV 0 out of 12
Pollen .40 out of 12
Air Quality Not available.
Flu Activity Sporadic
METAR KMFR 231253Z 03003KT 10SM OVC055 13/12 A2987 RMK AO2 RAE52 SLP110 P0002 T01330122

More Conditions Fewer Conditions

Pressure 29.86 in
Visibility 10.0 miles
Clouds Overcast 5500 ft
Dew Point 54 °F
Humidity 93%
Rainfall 0.03 in
Snow Depth 0 in
UV 0 out of 12
Pollen .40 out of 12
Air Quality Not available.
Flu Activity Sporadic
METAR KMFR 231253Z 03003KT 10SM OVC055 13/12 A2987 RMK AO2 RAE52 SLP110 P0002 T01330122

More Conditions Fewer Conditions

10-Day Weather Forecast

Almanac

Astronomy

Oct. 23, 2014 Rise Set
Actual Time 7:29 AM PDT 6:12 PM PDT
Civil Twilight 7:00 AM PDT 6:41 PM PDT
Nautical Twilight 6:27 AM PDT 7:13 PM PDT
Astronomical Twilight 5:55 AM PDT 7:46 PM PDT
Moon 7:13 AM PDT 6:17 PM PDT
Length of Visible Light 11h 40m
Length of Day
10h 43m
Tomorrow will be 2m 38s shorter.
Waning Crescent, 0% of the Moon is Illuminated
Today
Waning Crescent
Oct 23
New
Oct 30
First Quarter
Nov 6
Full
Nov 14
Last Quarter

Today's Extremes

State Highs State Lows

Community

WunderPhotos

Upload Photos

1,764,231 photos uploaded!

Nearby

Snow Depth

Station Depth Elevation
Strawberry 0 in 5760 ft
Billie Creek Divide 0 in 5300 ft
Cold Springs Camp 0 in 6100 ft
Fish Lake 0 in 4665 ft
Taylor Butte 0 in 5100 ft

Earthquake Activity

City Distance Mag. Time & Date
No recent earthquake activity has been reported nearby.
Minimum magnitude displayed is 2.5.

Coastal Water Temperatures

Place Temperature
No Stations Reporting

Nearby Weather Stations